Time;durP1;ratioP1;P1;durP2;ratioP2;P2;SDS_P1;SDS_P2;PMS_P1;PMS_P2;Temp;Humidity;BMP_temperature;BMP_pressure;BME280_temperature;BME280_humidity;BME280_pressure;Samples;Min_cycle;Max_cycle;Signal;HPM_P1;HPM_P2
2023/12/21 00:02:05;;;;;;;5.60;1.00;;;4.00;99.90;;;;;;4972386;28;20204;-58
2023/12/21 00:04:32;;;;;;;3.10;1.00;;;4.00;99.90;;;;;;4967497;28;20688;-58
2023/12/21 00:06:57;;;;;;;3.17;0.90;;;4.70;99.90;;;;;;4975487;28;20180;-65
2023/12/21 00:09:23;;;;;;;2.80;0.77;;;4.00;99.90;;;;;;4964091;28;20562;-65
2023/12/21 00:11:48;;;;;;;1.50;0.73;;;4.00;99.90;;;;;;4973854;28;20184;-64
2023/12/21 00:14:14;;;;;;;1.20;0.63;;;4.00;99.90;;;;;;4975411;28;20189;-65
2023/12/21 00:16:39;;;;;;;1.57;0.80;;;4.00;99.90;;;;;;4969921;28;20181;-58
2023/12/21 00:19:05;;;;;;;1.43;0.80;;;4.00;99.90;;;;;;4956162;29;20193;-58
2023/12/21 00:21:30;;;;;;;1.40;0.60;;;4.00;99.90;;;;;;4971670;28;20264;-64
2023/12/21 00:23:56;;;;;;;2.50;0.70;;;3.90;99.90;;;;;;4967672;28;20646;-64
2023/12/21 00:26:21;;;;;;;1.13;0.50;;;4.00;99.90;;;;;;4975252;28;20188;-58
2023/12/21 00:28:47;;;;;;;1.70;0.60;;;3.90;99.90;;;;;;4975117;28;20287;-58
2023/12/21 00:31:12;;;;;;;1.20;0.50;;;4.00;99.90;;;;;;4975188;28;20192;-64
2023/12/21 00:33:38;;;;;;;3.07;0.60;;;3.90;99.90;;;;;;4966286;28;20189;-64
2023/12/21 00:36:04;;;;;;;1.30;0.63;;;3.90;99.90;;;;;;4974342;28;20193;-64
2023/12/21 00:38:30;;;;;;;1.20;0.50;;;3.90;99.90;;;;;;4974332;28;20207;-64
2023/12/21 00:40:56;;;;;;;1.30;0.70;;;3.90;99.90;;;;;;4964924;28;20436;-64
2023/12/21 00:43:22;;;;;;;1.80;0.70;;;3.90;99.90;;;;;;4970377;28;20192;-64
2023/12/21 00:45:47;;;;;;;2.93;0.60;;;3.90;99.90;;;;;;4974300;28;20924;-64
2023/12/21 00:48:14;;;;;;;3.40;0.70;;;3.90;99.90;;;;;;4974741;28;20216;-64
2023/12/21 00:50:40;;;;;;;1.60;0.70;;;3.90;99.90;;;;;;4974904;28;20232;-64
2023/12/21 00:53:06;;;;;;;1.47;0.70;;;3.90;99.90;;;;;;4966326;28;20440;-65
2023/12/21 00:55:31;;;;;;;6.20;0.80;;;3.90;99.90;;;;;;4973779;28;20188;-65
2023/12/21 00:57:58;;;;;;;8.67;0.70;;;4.00;99.90;;;;;;4970929;28;20192;-64
2023/12/21 01:00:24;;;;;;;1.50;0.67;;;3.90;99.90;;;;;;4974578;28;20189;-64
2023/12/21 01:02:49;;;;;;;1.50;0.70;;;3.90;99.90;;;;;;4974650;28;20431;-65
2023/12/21 01:05:15;;;;;;;1.43;0.50;;;3.90;99.90;;;;;;4974040;28;20192;-65
2023/12/21 01:07:41;;;;;;;1.60;0.50;;;4.40;99.90;;;;;;4973902;28;20253;-65
2023/12/21 01:10:08;;;;;;;1.20;0.60;;;3.90;99.90;;;;;;4969819;28;20574;-65
2023/12/21 01:12:34;;;;;;;2.60;0.83;;;3.90;99.90;;;;;;4974369;28;20799;-65
2023/12/21 01:15:00;;;;;;;1.07;0.50;;;3.90;99.90;;;;;;4974276;28;20420;-65
2023/12/21 01:17:25;;;;;;;1.60;0.50;;;4.20;99.90;;;;;;4951138;28;20189;-65
2023/12/21 01:19:51;;;;;;;1.20;0.60;;;4.00;99.90;;;;;;4959887;28;20522;-65
2023/12/21 01:22:16;;;;;;;1.67;0.77;;;4.00;99.90;;;;;;4964884;28;20219;-64
2023/12/21 01:24:42;;;;;;;1.00;0.50;;;4.00;99.90;;;;;;4972697;28;20673;-65
2023/12/21 01:27:07;;;;;;;1.00;0.50;;;4.00;99.90;;;;;;4973966;28;20189;-65
2023/12/21 01:29:33;;;;;;;1.00;0.40;;;4.10;99.90;;;;;;4974077;28;20656;-65
2023/12/21 01:31:59;;;;;;;1.87;0.70;;;4.10;99.90;;;;;;4973931;28;20196;-65
2023/12/21 01:34:25;;;;;;;1.40;0.60;;;4.10;99.90;;;;;;4974308;28;20578;-65
2023/12/21 01:36:50;;;;;;;1.40;0.63;;;4.10;99.90;;;;;;4974168;28;20455;-65
2023/12/21 01:39:16;;;;;;;1.00;0.40;;;4.10;99.90;;;;;;4970881;28;20228;-65
2023/12/21 01:41:41;;;;;;;2.90;1.10;;;4.10;99.90;;;;;;4965619;28;20192;-65
2023/12/21 01:44:07;;;;;;;1.67;0.70;;;4.10;99.90;;;;;;4966808;28;20263;-65
2023/12/21 01:46:34;;;;;;;1.00;0.40;;;4.20;99.90;;;;;;4973848;28;20304;-65
2023/12/21 01:49:00;;;;;;;1.30;0.67;;;4.10;99.90;;;;;;4973677;28;20212;-65
2023/12/21 01:51:26;;;;;;;1.87;0.73;;;4.20;99.90;;;;;;4971806;28;20416;-59
2023/12/21 01:53:53;;;;;;;2.00;0.50;;;4.20;99.90;;;;;;4965849;28;20527;-59
2023/12/21 01:56:20;;;;;;;1.40;0.60;;;4.50;99.90;;;;;;4967951;28;20427;-58
2023/12/21 01:58:50;;;;;;;4.10;1.03;;;4.10;99.90;;;;;;4973217;28;20462;-59
2023/12/21 02:01:19;;;;;;;1.10;0.50;;;4.10;99.90;;;;;;4973088;28;20443;-65
2023/12/21 02:03:44;;;;;;;2.23;0.80;;;4.10;99.90;;;;;;4973451;28;20524;-65
2023/12/21 02:06:10;;;;;;;1.10;0.50;;;4.10;99.90;;;;;;4973454;28;20780;-65
2023/12/21 02:08:35;;;;;;;2.03;0.70;;;4.10;99.90;;;;;;4972578;28;20360;-65
2023/12/21 02:11:06;;;;;;;1.00;0.40;;;4.10;99.90;;;;;;4969388;28;20188;-65
2023/12/21 02:13:32;;;;;;;1.20;0.53;;;4.20;99.90;;;;;;4947491;28;20725;-65
2023/12/21 02:16:03;;;;;;;1.00;0.50;;;4.20;99.90;;;;;;4972284;28;20518;-65
2023/12/21 02:18:29;;;;;;;1.20;0.50;;;4.20;99.90;;;;;;4946551;29;20525;-65
2023/12/21 02:20:56;;;;;;;1.20;0.50;;;4.20;99.90;;;;;;4966728;28;20460;-58
2023/12/21 02:23:24;;;;;;;1.10;0.43;;;4.10;99.90;;;;;;4961680;28;20176;-59
2023/12/21 02:25:50;;;;;;;1.10;0.40;;;4.20;99.90;;;;;;4972828;28;20436;-59
2023/12/21 02:28:15;;;;;;;1.00;0.47;;;4.20;99.90;;;;;;4972671;28;20829;-65
2023/12/21 02:30:41;;;;;;;1.00;0.50;;;4.30;99.90;;;;;;4972703;28;20188;-65
2023/12/21 02:33:07;;;;;;;1.40;0.77;;;4.20;99.90;;;;;;4973033;28;20214;-65
2023/12/21 02:35:32;;;;;;;1.20;0.50;;;4.50;99.90;;;;;;4972828;28;20189;-65
2023/12/21 02:37:58;;;;;;;1.30;0.53;;;4.30;99.90;;;;;;4970077;28;20436;-65
2023/12/21 02:40:23;;;;;;;1.50;0.60;;;4.30;99.90;;;;;;4955418;28;20798;-65
2023/12/21 02:42:48;;;;;;;1.53;0.60;;;4.30;99.90;;;;;;4972420;28;20191;-64
2023/12/21 02:45:14;;;;;;;1.00;0.50;;;4.30;99.90;;;;;;4966322;28;20637;-65
2023/12/21 02:47:39;;;;;;;1.20;0.60;;;4.30;99.90;;;;;;4972677;28;20184;-65
2023/12/21 02:50:06;;;;;;;1.40;0.77;;;4.30;99.90;;;;;;4965872;28;20236;-65
2023/12/21 02:52:31;;;;;;;4.40;0.60;;;4.30;99.90;;;;;;4967346;28;20188;-59
2023/12/21 02:54:57;;;;;;;1.00;0.40;;;4.30;99.90;;;;;;4972746;28;20472;-59
2023/12/21 02:57:22;;;;;;;1.00;0.50;;;4.30;99.90;;;;;;4972647;28;20626;-59
2023/12/21 02:59:49;;;;;;;1.10;0.50;;;4.30;99.90;;;;;;4972607;28;20205;-59
2023/12/21 03:02:15;;;;;;;1.83;0.50;;;4.30;99.90;;;;;;4972394;28;20176;-65
2023/12/21 03:04:40;;;;;;;3.77;0.50;;;4.40;99.90;;;;;;4972290;28;20479;-65
2023/12/21 03:07:06;;;;;;;1.20;0.47;;;4.40;99.90;;;;;;4972602;28;20192;-65
2023/12/21 03:09:31;;;;;;;1.97;0.53;;;4.40;99.90;;;;;;4957602;28;20656;-65
2023/12/21 03:11:57;;;;;;;1.10;0.50;;;4.40;99.90;;;;;;4971896;28;20606;-58
2023/12/21 03:14:22;;;;;;;1.00;0.40;;;4.40;99.90;;;;;;4972586;28;20180;-59
2023/12/21 03:16:49;;;;;;;1.00;0.40;;;4.40;99.90;;;;;;4965754;28;20191;-59
2023/12/21 03:19:14;;;;;;;1.97;0.60;;;4.50;99.90;;;;;;4953119;28;20680;-59
2023/12/21 03:21:40;;;;;;;1.00;0.40;;;4.40;99.90;;;;;;4968730;28;20433;-59
2023/12/21 03:24:06;;;;;;;1.20;0.50;;;4.40;99.90;;;;;;4965400;28;20291;-59
2023/12/21 03:26:31;;;;;;;1.10;0.60;;;4.40;99.90;;;;;;4959604;28;20196;-59
2023/12/21 03:28:57;;;;;;;1.10;0.50;;;4.40;99.90;;;;;;4966004;28;21102;-59
2023/12/21 03:31:23;;;;;;;1.07;0.43;;;4.40;99.90;;;;;;4976011;28;20187;-65
2023/12/21 03:33:48;;;;;;;1.00;0.50;;;4.40;99.90;;;;;;4973136;28;20260;-65
2023/12/21 03:36:14;;;;;;;1.00;0.40;;;4.50;99.90;;;;;;4976241;28;20191;-65
2023/12/21 03:38:39;;;;;;;1.00;0.40;;;4.50;99.90;;;;;;4972579;28;20195;-66
2023/12/21 03:41:05;;;;;;;1.10;0.50;;;4.50;99.90;;;;;;4964147;28;20264;-59
2023/12/21 03:43:30;;;;;;;1.00;0.40;;;4.50;99.90;;;;;;4969402;28;20559;-58
2023/12/21 03:45:56;;;;;;;1.00;0.40;;;4.50;99.90;;;;;;4975052;28;20192;-64
2023/12/21 03:48:21;;;;;;;1.83;0.43;;;4.50;99.90;;;;;;4970660;28;20622;-64
2023/12/21 03:50:47;;;;;;;1.10;0.50;;;4.60;99.90;;;;;;4975069;28;20231;-65
2023/12/21 03:53:14;;;;;;;1.60;0.60;;;4.50;99.90;;;;;;4970733;28;20547;-64
2023/12/21 03:55:40;;;;;;;1.10;0.57;;;4.60;99.90;;;;;;4972376;28;20645;-64
2023/12/21 03:58:05;;;;;;;1.67;0.47;;;4.60;99.90;;;;;;4968366;28;20438;-64
2023/12/21 04:00:31;;;;;;;1.20;0.57;;;4.60;99.90;;;;;;4975689;28;20181;-65
2023/12/21 04:02:56;;;;;;;1.20;0.50;;;4.60;99.90;;;;;;4966708;28;20185;-65
2023/12/21 04:05:22;;;;;;;1.00;0.40;;;4.60;99.90;;;;;;4974638;28;20184;-65
2023/12/21 04:07:47;;;;;;;1.10;0.50;;;4.60;99.90;;;;;;4974797;28;20181;-64
2023/12/21 04:10:13;;;;;;;1.00;0.40;;;4.60;99.90;;;;;;4970693;28;20212;-64
2023/12/21 04:12:39;;;;;;;1.47;0.40;;;4.60;99.90;;;;;;4975655;28;20251;-65
2023/12/21 04:15:04;;;;;;;1.30;0.60;;;4.50;99.90;;;;;;4975547;28;20197;-64
2023/12/21 04:17:30;;;;;;;1.00;0.40;;;4.50;99.90;;;;;;4963135;28;20188;-65
2023/12/21 04:19:56;;;;;;;1.40;0.80;;;4.60;99.90;;;;;;4961619;28;20236;-64
2023/12/21 04:22:21;;;;;;;1.87;0.50;;;4.50;99.90;;;;;;4965567;28;20228;-58
2023/12/21 04:24:47;;;;;;;1.37;0.50;;;4.50;99.90;;;;;;4962634;28;20649;-58
2023/12/21 04:27:12;;;;;;;1.53;0.63;;;4.50;99.90;;;;;;4972030;28;20196;-64
2023/12/21 04:29:38;;;;;;;1.20;0.50;;;4.50;99.90;;;;;;4965974;28;20200;-64
2023/12/21 04:32:05;;;;;;;1.00;0.40;;;4.50;99.90;;;;;;4967469;28;20527;-58
2023/12/21 04:34:31;;;;;;;1.10;0.60;;;4.50;99.90;;;;;;4975194;28;20506;-59
2023/12/21 04:36:56;;;;;;;1.83;0.80;;;4.50;99.90;;;;;;4975247;28;20451;-58
2023/12/21 04:39:22;;;;;;;1.00;0.40;;;4.50;99.90;;;;;;4964626;28;20189;-58
2023/12/21 04:41:48;;;;;;;1.23;0.60;;;4.50;99.90;;;;;;4966871;28;20188;-64
2023/12/21 04:44:13;;;;;;;1.00;0.40;;;4.50;99.90;;;;;;4967249;28;20196;-64
2023/12/21 04:46:39;;;;;;;1.00;0.40;;;4.60;99.90;;;;;;4974613;28;20199;-64
2023/12/21 04:49:04;;;;;;;1.00;0.50;;;4.80;99.90;;;;;;4974799;28;20670;-64
2023/12/21 04:51:30;;;;;;;1.00;0.40;;;4.50;99.90;;;;;;4975029;28;20187;-64
2023/12/21 04:53:55;;;;;;;1.10;0.50;;;4.50;99.90;;;;;;4967228;28;20220;-64
2023/12/21 04:56:21;;;;;;;1.30;0.50;;;4.50;99.90;;;;;;4974929;28;20188;-64
2023/12/21 04:58:46;;;;;;;1.00;0.50;;;4.50;99.90;;;;;;4974499;28;20267;-64
2023/12/21 05:01:12;;;;;;;1.00;0.40;;;4.50;99.90;;;;;;4974104;28;20653;-64
2023/12/21 05:03:37;;;;;;;1.00;0.50;;;4.60;99.90;;;;;;4974320;28;20195;-65
2023/12/21 05:06:03;;;;;;;1.00;0.40;;;4.50;99.90;;;;;;4974687;28;20188;-64
2023/12/21 05:08:29;;;;;;;1.30;0.50;;;4.60;99.90;;;;;;4965308;28;20209;-64
2023/12/21 05:10:55;;;;;;;1.00;0.40;;;4.60;99.90;;;;;;4959780;28;20204;-59
2023/12/21 05:13:20;;;;;;;1.10;0.50;;;4.60;99.90;;;;;;4969674;28;20188;-58
2023/12/21 05:15:46;;;;;;;2.00;0.40;;;4.60;99.90;;;;;;4964795;28;20223;-59
2023/12/21 05:18:11;;;;;;;1.03;0.40;;;4.60;99.90;;;;;;4956494;28;20185;-64
2023/12/21 05:20:37;;;;;;;1.00;0.40;;;4.60;99.90;;;;;;4966205;28;20808;-64
2023/12/21 05:23:02;;;;;;;1.00;0.40;;;4.60;99.90;;;;;;4973802;28;20191;-65
2023/12/21 05:25:28;;;;;;;1.43;0.40;;;4.60;99.90;;;;;;4974362;28;20571;-65
2023/12/21 05:27:54;;;;;;;1.00;0.40;;;4.60;99.90;;;;;;4974133;28;20188;-58
2023/12/21 05:30:20;;;;;;;1.00;0.50;;;4.60;99.90;;;;;;4970383;28;20236;-58
2023/12/21 05:32:46;;;;;;;1.20;0.50;;;4.60;99.90;;;;;;4971876;28;20459;-64
2023/12/21 05:35:12;;;;;;;1.10;0.50;;;4.60;99.90;;;;;;4974134;28;20773;-64
2023/12/21 05:37:38;;;;;;;1.20;0.50;;;4.60;99.90;;;;;;4973763;28;20768;-64
2023/12/21 05:40:04;;;;;;;1.00;0.40;;;4.60;99.90;;;;;;4962561;28;20436;-64
2023/12/21 05:42:29;;;;;;;1.00;0.50;;;4.60;99.90;;;;;;4971711;28;20232;-65
2023/12/21 05:44:55;;;;;;;1.00;0.40;;;4.60;99.90;;;;;;4967304;28;20826;-65
2023/12/21 05:47:20;;;;;;;1.20;0.50;;;4.60;99.90;;;;;;4966462;28;20188;-58
2023/12/21 05:49:46;;;;;;;1.00;0.40;;;4.60;99.90;;;;;;4959954;28;20243;-58
2023/12/21 05:52:12;;;;;;;1.03;0.40;;;4.60;99.90;;;;;;4973309;28;20546;-59
2023/12/21 05:54:38;;;;;;;1.00;0.40;;;4.60;99.90;;;;;;4969788;28;20177;-58
2023/12/21 05:57:04;;;;;;;1.00;0.50;;;4.50;99.90;;;;;;4966639;28;20959;-64
2023/12/21 05:59:30;;;;;;;1.00;0.43;;;4.60;99.90;;;;;;4954694;28;20200;-64
2023/12/21 06:01:56;;;;;;;1.00;0.40;;;4.50;99.90;;;;;;4958690;28;20420;-64
2023/12/21 06:04:22;;;;;;;1.00;0.40;;;4.50;99.90;;;;;;4973490;28;20211;-65
2023/12/21 06:06:47;;;;;;;1.00;0.50;;;4.60;99.90;;;;;;4973467;28;20235;-59
2023/12/21 06:09:13;;;;;;;1.00;0.40;;;4.80;99.90;;;;;;4971103;28;20568;-59
2023/12/21 06:11:39;;;;;;;1.10;0.47;;;4.60;99.90;;;;;;4970660;28;20191;-59
2023/12/21 06:14:04;;;;;;;1.00;0.40;;;4.60;99.90;;;;;;4973352;28;20574;-59
2023/12/21 06:16:30;;;;;;;1.00;0.40;;;4.60;99.90;;;;;;4969019;28;20516;-59
2023/12/21 06:18:55;;;;;;;1.40;0.50;;;4.90;99.90;;;;;;4953735;29;20208;-59
2023/12/21 06:21:23;;;;;;;1.00;0.50;;;4.60;99.90;;;;;;4970907;28;20228;-65
2023/12/21 06:23:49;;;;;;;1.70;0.70;;;4.60;99.90;;;;;;4972811;28;20277;-65
2023/12/21 06:26:14;;;;;;;1.93;0.60;;;4.60;99.90;;;;;;4973104;28;20832;-59
2023/12/21 06:28:40;;;;;;;1.37;0.50;;;4.60;99.90;;;;;;4973314;28;20210;-58
2023/12/21 06:31:06;;;;;;;1.10;0.60;;;4.70;99.90;;;;;;4967240;28;20185;-64
2023/12/21 06:33:31;;;;;;;1.10;0.50;;;4.70;99.90;;;;;;4960797;28;20792;-65
2023/12/21 06:35:57;;;;;;;2.00;0.70;;;4.70;99.90;;;;;;4952652;28;20185;-59
2023/12/21 06:38:22;;;;;;;1.87;0.70;;;4.70;99.90;;;;;;4972607;28;20184;-59
2023/12/21 06:40:50;;;;;;;1.20;0.67;;;4.70;99.90;;;;;;4962000;28;20192;-58
2023/12/21 06:43:15;;;;;;;1.10;0.57;;;4.70;99.90;;;;;;4969110;28;20181;-64
2023/12/21 06:45:41;;;;;;;1.20;0.70;;;4.70;99.90;;;;;;4969898;28;20467;-65
2023/12/21 06:48:06;;;;;;;1.33;0.50;;;4.70;99.90;;;;;;4972845;28;20223;-64
2023/12/21 06:50:32;;;;;;;2.07;0.70;;;4.70;99.90;;;;;;4972824;28;20228;-65
2023/12/21 06:52:59;;;;;;;1.10;0.50;;;4.70;99.90;;;;;;4972381;28;20779;-64
2023/12/21 06:55:25;;;;;;;1.00;0.40;;;4.70;99.90;;;;;;4972925;28;20238;-65
2023/12/21 06:57:50;;;;;;;1.10;0.40;;;4.70;99.90;;;;;;4957726;28;20449;-59
2023/12/21 07:00:16;;;;;;;1.00;0.40;;;4.80;99.90;;;;;;4959254;28;20229;-58
2023/12/21 07:02:42;;;;;;;1.83;0.50;;;4.80;99.90;;;;;;4963216;28;20188;-65
2023/12/21 07:05:08;;;;;;;1.30;0.60;;;4.80;99.90;;;;;;4972641;28;20487;-64
2023/12/21 07:07:33;;;;;;;1.00;0.43;;;4.80;99.90;;;;;;4972452;28;20231;-64
2023/12/21 07:09:59;;;;;;;4.70;0.50;;;4.90;99.90;;;;;;4968005;28;20538;-64
2023/12/21 07:12:26;;;;;;;1.40;0.60;;;4.90;99.90;;;;;;4963795;28;22139;-65
2023/12/21 07:14:51;;;;;;;1.00;0.40;;;4.90;99.90;;;;;;4957819;28;20236;-65
2023/12/21 07:17:17;;;;;;;1.10;0.50;;;5.00;99.90;;;;;;4961778;28;20433;-58
2023/12/21 07:19:42;;;;;;;1.10;0.40;;;5.00;99.90;;;;;;4956811;28;20303;-58
2023/12/21 07:22:08;;;;;;;1.10;0.40;;;5.00;99.90;;;;;;4972362;28;20211;-58
2023/12/21 07:24:33;;;;;;;1.00;0.40;;;5.10;99.90;;;;;;4972381;28;20855;-58
2023/12/21 07:26:59;;;;;;;1.00;0.40;;;5.10;99.90;;;;;;4972440;28;20192;-65
2023/12/21 07:29:25;;;;;;;1.53;0.40;;;5.10;99.90;;;;;;4972217;28;20207;-65
2023/12/21 07:31:50;;;;;;;3.23;0.50;;;5.10;99.90;;;;;;4966343;28;20193;-65
2023/12/21 07:34:16;;;;;;;1.00;0.50;;;5.40;99.90;;;;;;4943100;28;20255;-65
2023/12/21 07:36:41;;;;;;;1.00;0.40;;;5.10;99.90;;;;;;4965064;28;20614;-65
2023/12/21 07:39:07;;;;;;;1.10;0.50;;;5.10;99.90;;;;;;4970257;28;20236;-66
2023/12/21 07:41:33;;;;;;;1.10;0.50;;;5.20;99.90;;;;;;4968465;28;20185;-66
2023/12/21 07:43:59;;;;;;;1.00;0.40;;;5.20;99.90;;;;;;4959383;28;20184;-66
2023/12/21 07:46:24;;;;;;;1.00;0.40;;;5.20;99.90;;;;;;4969491;28;20419;-59
2023/12/21 07:48:50;;;;;;;1.20;0.60;;;5.20;99.90;;;;;;4969172;28;20475;-59
2023/12/21 07:51:16;;;;;;;1.10;0.50;;;5.20;99.90;;;;;;4967471;28;20189;-65
2023/12/21 07:53:41;;;;;;;1.00;0.40;;;5.20;99.90;;;;;;4968592;28;20184;-66
2023/12/21 07:56:07;;;;;;;1.10;0.50;;;5.20;99.90;;;;;;4968691;28;20548;-66
2023/12/21 07:58:33;;;;;;;1.30;0.60;;;5.20;99.90;;;;;;4949791;28;20543;-66
2023/12/21 08:00:59;;;;;;;1.10;0.50;;;5.20;99.90;;;;;;4955900;28;20203;-65
2023/12/21 08:03:24;;;;;;;2.03;0.70;;;5.20;99.90;;;;;;4951619;28;20223;-65
2023/12/21 08:05:50;;;;;;;1.00;0.40;;;5.20;99.90;;;;;;4966940;28;20490;-66
2023/12/21 08:08:15;;;;;;;1.00;0.40;;;5.20;99.90;;;;;;4963627;28;20188;-65
2023/12/21 08:10:41;;;;;;;1.00;0.40;;;5.20;99.90;;;;;;4957274;28;20625;-66
2023/12/21 08:13:09;;;;;;;1.00;0.40;;;5.20;99.90;;;;;;4958172;28;20174;-66
2023/12/21 08:15:34;;;;;;;4.03;0.50;;;5.20;99.90;;;;;;4971022;28;21003;-65
2023/12/21 08:18:01;;;;;;;1.20;0.60;;;5.30;99.90;;;;;;4962496;28;20462;-65
2023/12/21 08:20:27;;;;;;;1.00;0.43;;;5.30;99.90;;;;;;4969270;28;20232;-66
2023/12/21 08:22:52;;;;;;;1.20;0.60;;;5.30;99.90;;;;;;4971948;28;20432;-58
2023/12/21 08:25:18;;;;;;;1.63;0.50;;;5.30;99.90;;;;;;4966023;28;20431;-58
2023/12/21 08:27:44;;;;;;;1.27;0.60;;;5.30;99.90;;;;;;4973885;28;20191;-61
2023/12/21 08:30:10;;;;;;;2.70;0.60;;;5.30;99.90;;;;;;4972551;28;20215;-58
2023/12/21 08:32:36;;;;;;;1.07;0.50;;;5.20;99.90;;;;;;4965766;28;20200;-66
2023/12/21 08:35:01;;;;;;;1.40;0.60;;;5.20;99.90;;;;;;4973334;28;20437;-66
2023/12/21 08:37:27;;;;;;;1.10;0.50;;;5.30;99.90;;;;;;4968837;28;20189;-66
2023/12/21 08:39:52;;;;;;;1.50;0.60;;;5.20;99.90;;;;;;4964848;28;20213;-65
2023/12/21 08:42:18;;;;;;;1.00;0.40;;;5.30;99.90;;;;;;4970130;28;20192;-66
2023/12/21 08:44:43;;;;;;;1.13;0.50;;;5.30;99.90;;;;;;4964398;28;20181;-65
2023/12/21 08:47:08;;;;;;;1.00;0.40;;;5.30;99.90;;;;;;4970948;28;20700;-65
2023/12/21 08:49:34;;;;;;;1.00;0.43;;;5.30;99.90;;;;;;4974310;28;20220;-65
2023/12/21 08:52:00;;;;;;;2.30;0.70;;;5.30;99.90;;;;;;4962884;28;20755;-58
2023/12/21 08:54:25;;;;;;;1.00;0.40;;;5.40;99.90;;;;;;4972603;28;20181;-58
2023/12/21 08:56:51;;;;;;;1.20;0.50;;;5.40;99.90;;;;;;4968358;28;20191;-65
2023/12/21 08:59:17;;;;;;;1.00;0.40;;;5.40;99.90;;;;;;4955493;28;20228;-66
2023/12/21 09:01:43;;;;;;;1.00;0.40;;;5.40;99.90;;;;;;4965284;28;20539;-65
2023/12/21 09:04:08;;;;;;;1.70;0.93;;;5.40;99.90;;;;;;4967232;28;20428;-65
2023/12/21 09:06:34;;;;;;;1.00;0.40;;;5.40;99.90;;;;;;4973248;28;20299;-65
2023/12/21 09:09:02;;;;;;;1.27;0.60;;;5.40;99.90;;;;;;4972938;28;20669;-65
2023/12/21 09:11:28;;;;;;;1.00;0.40;;;5.50;99.90;;;;;;4969356;28;20259;-65
2023/12/21 09:13:55;;;;;;;1.00;0.50;;;5.50;99.90;;;;;;4973460;28;20524;-65
2023/12/21 09:16:21;;;;;;;1.00;0.40;;;5.50;99.90;;;;;;4970365;28;20646;-65
2023/12/21 09:18:47;;;;;;;1.10;0.53;;;5.50;99.90;;;;;;4960387;28;21113;-65
2023/12/21 09:21:12;;;;;;;1.00;0.47;;;5.50;99.90;;;;;;4973384;28;20487;-59
2023/12/21 09:23:39;;;;;;;1.97;0.70;;;5.50;99.90;;;;;;4961765;28;20196;-58
2023/12/21 09:26:08;;;;;;;1.90;0.87;;;5.50;99.90;;;;;;4966499;28;20272;-64
2023/12/21 09:28:35;;;;;;;1.00;0.40;;;5.50;99.90;;;;;;4965962;28;20460;-64
2023/12/21 09:31:00;;;;;;;1.30;0.50;;;5.60;99.90;;;;;;4973336;28;20416;-58
2023/12/21 09:33:26;;;;;;;1.00;0.40;;;5.60;99.90;;;;;;4968890;28;20416;-65
2023/12/21 09:35:54;;;;;;;1.10;0.53;;;5.60;99.90;;;;;;4965055;28;20191;-65
2023/12/21 09:38:20;;;;;;;1.73;0.80;;;5.70;99.90;;;;;;4971022;28;20494;-64
2023/12/21 09:40:45;;;;;;;1.10;0.50;;;5.70;99.90;;;;;;4969753;28;20419;-65
2023/12/21 09:43:13;;;;;;;1.00;0.50;;;5.70;99.90;;;;;;4971337;28;20181;-65
2023/12/21 09:45:40;;;;;;;1.00;0.50;;;5.80;99.90;;;;;;4972751;28;20183;-65
2023/12/21 09:48:07;;;;;;;1.00;0.40;;;5.80;99.90;;;;;;4968984;28;20428;-57
2023/12/21 09:50:32;;;;;;;1.00;0.40;;;5.80;99.90;;;;;;4971777;28;20459;-57
2023/12/21 09:52:59;;;;;;;1.20;0.50;;;5.90;99.90;;;;;;4970907;28;20535;-57
2023/12/21 09:55:30;;;;;;;1.10;0.50;;;5.90;99.90;;;;;;4971640;28;20635;-57
2023/12/21 09:57:57;;;;;;;1.43;0.53;;;5.90;99.90;;;;;;4963652;28;20835;-65
2023/12/21 10:00:24;;;;;;;1.10;0.60;;;5.90;99.90;;;;;;4965609;28;20443;-65
2023/12/21 10:02:49;;;;;;;3.77;0.80;;;5.90;99.90;;;;;;4971188;28;20430;-64
2023/12/21 10:05:15;;;;;;;1.40;0.90;;;5.90;99.90;;;;;;4964223;28;20432;-64
2023/12/21 10:07:42;;;;;;;1.30;0.43;;;5.90;99.90;;;;;;4965648;28;20177;-64
2023/12/21 10:10:08;;;;;;;1.37;0.50;;;6.00;99.90;;;;;;4968358;28;20200;-64
2023/12/21 10:12:34;;;;;;;1.00;0.40;;;6.00;99.90;;;;;;4971681;28;20462;-64
2023/12/21 10:15:02;;;;;;;1.00;0.40;;;6.00;99.90;;;;;;4971387;28;21269;-64
2023/12/21 10:17:27;;;;;;;1.43;0.70;;;6.00;99.90;;;;;;4966225;28;20197;-64
2023/12/21 10:19:53;;;;;;;1.30;0.50;;;6.00;99.90;;;;;;4963365;28;20468;-64
2023/12/21 10:22:19;;;;;;;1.40;0.50;;;6.10;99.90;;;;;;4971324;28;20283;-64
2023/12/21 10:24:47;;;;;;;1.30;0.63;;;6.20;99.90;;;;;;4963592;28;20205;-64
2023/12/21 10:27:13;;;;;;;1.00;0.50;;;6.00;99.90;;;;;;4967106;28;20849;-64
2023/12/21 10:29:40;;;;;;;1.00;0.50;;;6.00;99.90;;;;;;4962747;28;20503;-64
2023/12/21 10:32:05;;;;;;;1.10;0.50;;;6.00;99.90;;;;;;4967639;28;20219;-58
2023/12/21 10:34:31;;;;;;;2.43;0.50;;;6.00;99.90;;;;;;4971025;28;20459;-57
2023/12/21 10:37:00;;;;;;;1.00;0.40;;;6.00;99.90;;;;;;4971681;28;20248;-64
2023/12/21 10:39:27;;;;;;;1.00;0.40;;;6.10;99.90;;;;;;4970177;28;20632;-64
2023/12/21 10:41:53;;;;;;;1.63;0.50;;;6.20;99.90;;;;;;4971875;28;20462;-64
2023/12/21 10:44:20;;;;;;;1.00;0.40;;;6.00;99.90;;;;;;4969025;28;20518;-64
2023/12/21 10:46:47;;;;;;;1.00;0.40;;;6.10;99.90;;;;;;4959680;28;20467;-57
2023/12/21 10:49:13;;;;;;;2.33;0.50;;;6.00;99.90;;;;;;4967941;28;20466;-57
2023/12/21 10:51:40;;;;;;;1.00;0.40;;;6.00;99.90;;;;;;4971195;28;20420;-64
2023/12/21 10:54:08;;;;;;;1.00;0.40;;;6.00;99.90;;;;;;4970814;28;20416;-64
2023/12/21 10:56:37;;;;;;;1.10;0.50;;;6.40;99.90;;;;;;4971467;28;20506;-65
2023/12/21 10:59:03;;;;;;;1.00;0.40;;;6.00;99.90;;;;;;4971090;28;20526;-64
2023/12/21 11:01:30;;;;;;;1.10;0.50;;;6.00;99.90;;;;;;4970005;28;20507;-57
2023/12/21 11:03:59;;;;;;;3.90;0.80;;;6.00;99.90;;;;;;4970645;28;20432;-57
2023/12/21 11:06:26;;;;;;;1.10;0.50;;;6.00;99.90;;;;;;4971372;28;20423;-65
2023/12/21 11:08:53;;;;;;;1.27;0.50;;;6.10;99.90;;;;;;4959881;28;20472;-64
2023/12/21 11:11:22;;;;;;;1.00;0.40;;;6.10;99.90;;;;;;4970010;28;20483;-57
2023/12/21 11:13:52;;;;;;;1.10;0.57;;;6.20;99.90;;;;;;4971223;28;20427;-57
2023/12/21 11:16:23;;;;;;;1.10;0.40;;;6.10;99.90;;;;;;4967714;28;20423;-64
2023/12/21 11:18:49;;;;;;;1.20;0.50;;;6.10;99.90;;;;;;4965998;28;20490;-64
2023/12/21 11:21:16;;;;;;;3.00;0.90;;;6.10;99.90;;;;;;4971496;28;20468;-65
2023/12/21 11:23:42;;;;;;;1.10;0.40;;;6.10;99.90;;;;;;4970861;28;20432;-64
2023/12/21 11:26:09;;;;;;;3.33;0.70;;;6.10;99.90;;;;;;4971377;28;20494;-64
2023/12/21 11:28:35;;;;;;;1.30;0.50;;;6.10;99.90;;;;;;4971361;28;20471;-65
2023/12/21 11:31:13;;;;;;;3.00;0.50;;;6.10;99.90;;;;;;4969002;28;20931;-65
2023/12/21 11:33:39;;;;;;;1.00;0.40;;;6.10;99.90;;;;;;4971175;28;20927;-65
2023/12/21 11:36:05;;;;;;;2.17;0.87;;;6.10;99.90;;;;;;4956475;28;20440;-65
2023/12/21 11:38:45;;;;;;;2.17;1.00;;;6.20;99.90;;;;;;4951770;28;20189;-65
2023/12/21 11:41:11;;;;;;;1.57;0.60;;;6.40;99.90;;;;;;4967484;28;20416;-65
2023/12/21 11:43:36;;;;;;;1.50;0.73;;;6.20;99.90;;;;;;4966940;28;20510;-65
2023/12/21 11:46:02;;;;;;;1.67;0.80;;;6.20;99.90;;;;;;4971305;28;20547;-57
2023/12/21 11:48:31;;;;;;;1.30;0.47;;;6.30;99.90;;;;;;4972371;28;20208;-57
2023/12/21 11:51:01;;;;;;;1.10;0.53;;;6.30;99.90;;;;;;4960764;28;20669;-64
2023/12/21 11:53:28;;;;;;;1.00;0.50;;;6.60;99.90;;;;;;4973968;28;20415;-65
2023/12/21 11:55:54;;;;;;;2.20;0.50;;;6.30;99.90;;;;;;4974931;28;20466;-64
2023/12/21 11:58:22;;;;;;;1.10;0.47;;;6.40;99.90;;;;;;4964233;28;20440;-65
2023/12/21 12:00:50;;;;;;;1.00;0.50;;;6.30;99.90;;;;;;4974066;28;20181;-65
2023/12/21 12:03:17;;;;;;;1.13;0.53;;;6.30;99.90;;;;;;4972470;28;20581;-65
2023/12/21 12:05:42;;;;;;;1.30;0.60;;;6.30;99.90;;;;;;4974445;28;20437;-65
2023/12/21 12:08:08;;;;;;;1.10;0.50;;;6.30;99.90;;;;;;4973630;28;20764;-57
2023/12/21 12:10:34;;;;;;;1.20;0.60;;;6.30;99.90;;;;;;4963519;28;20209;-57
2023/12/21 12:13:02;;;;;;;1.70;0.50;;;6.30;99.90;;;;;;4974287;28;20208;-57
2023/12/21 12:15:27;;;;;;;1.27;0.50;;;6.40;99.90;;;;;;4974373;28;20466;-57
2023/12/21 12:17:54;;;;;;;1.20;0.50;;;6.50;99.90;;;;;;4967998;28;20424;-65
2023/12/21 12:20:19;;;;;;;1.10;0.50;;;6.90;99.90;;;;;;4974210;28;20235;-65
2023/12/21 12:22:45;;;;;;;1.53;0.50;;;6.50;99.90;;;;;;4973067;28;20428;-65
2023/12/21 12:25:14;;;;;;;1.20;0.60;;;6.60;99.90;;;;;;4972881;28;20195;-65
2023/12/21 12:27:39;;;;;;;1.00;0.40;;;6.60;99.90;;;;;;4973457;28;20203;-57
2023/12/21 12:30:06;;;;;;;1.20;0.50;;;6.60;99.90;;;;;;4972054;28;20471;-57
2023/12/21 12:32:32;;;;;;;1.10;0.50;;;6.70;99.90;;;;;;4968374;28;20180;-57
2023/12/21 12:34:58;;;;;;;1.93;0.70;;;6.80;99.90;;;;;;4973485;28;20424;-57
2023/12/21 12:37:23;;;;;;;1.03;0.40;;;6.70;99.90;;;;;;4972209;28;20754;-65
2023/12/21 12:39:51;;;;;;;1.40;0.70;;;6.70;99.90;;;;;;4967685;28;20442;-65
2023/12/21 12:42:17;;;;;;;1.10;0.50;;;6.80;99.90;;;;;;4972625;28;20177;-65
2023/12/21 12:44:44;;;;;;;1.60;0.50;;;6.80;99.90;;;;;;4971188;28;20423;-65
2023/12/21 12:47:12;;;;;;;1.00;0.40;;;6.80;99.90;;;;;;4972583;28;20431;-57
2023/12/21 12:49:37;;;;;;;1.10;0.60;;;6.80;99.90;;;;;;4973100;28;20503;-57
2023/12/21 12:52:07;;;;;;;1.00;0.40;;;6.80;99.90;;;;;;4972979;28;20546;-64